createdAt,value
2023-01-06T00:00:13.243Z,4.50
2023-01-06T00:03:01.503Z,6.90
2023-01-06T00:05:29.908Z,4.90
2023-01-06T00:07:57.969Z,4.80
2023-01-06T00:10:26.430Z,5.50
2023-01-06T00:12:54.599Z,5.70
2023-01-06T00:15:22.717Z,7.50
2023-01-06T00:17:52.891Z,5.30
2023-01-06T00:20:20.896Z,6.80
2023-01-06T00:22:49.352Z,4.50
2023-01-06T00:25:17.318Z,4.70
2023-01-06T00:27:45.243Z,3.10
2023-01-06T00:30:13.212Z,4.40
2023-01-06T00:32:41.294Z,3.60
2023-01-06T00:35:09.710Z,5.70
2023-01-06T00:37:37.574Z,5.30
2023-01-06T00:40:05.941Z,5.60
2023-01-06T00:42:33.691Z,4.30
2023-01-06T00:45:02.663Z,4.40
2023-01-06T00:47:31.244Z,3.00
2023-01-06T00:49:59.753Z,4.50
2023-01-06T00:52:27.704Z,4.60
2023-01-06T00:54:55.607Z,3.80
2023-01-06T00:57:23.384Z,4.60
2023-01-06T00:59:51.348Z,3.70
2023-01-06T01:02:19.528Z,4.10
2023-01-06T01:04:47.767Z,3.50
2023-01-06T01:07:15.912Z,6.00
2023-01-06T01:09:43.863Z,4.30
2023-01-06T01:12:12.691Z,4.80
2023-01-06T01:14:47.309Z,4.90
2023-01-06T01:17:17.529Z,2.80
2023-01-06T01:19:45.615Z,3.00
2023-01-06T01:22:13.623Z,3.60
2023-01-06T01:24:42.013Z,4.60
2023-01-06T01:27:09.876Z,3.40
2023-01-06T01:29:37.793Z,4.30
2023-01-06T01:32:05.808Z,3.40
2023-01-06T01:34:33.831Z,4.80
2023-01-06T01:37:01.676Z,4.10
2023-01-06T01:39:30.466Z,5.60
2023-01-06T01:41:58.767Z,3.90
2023-01-06T01:44:45.620Z,4.60
2023-01-06T01:49:43.900Z,3.40
2023-01-06T01:52:12.211Z,5.50
2023-01-06T01:54:40.718Z,6.10
2023-01-06T01:57:16.982Z,5.00
2023-01-06T01:59:46.183Z,3.70
2023-01-06T02:02:15.539Z,4.40
2023-01-06T02:04:45.854Z,5.40
2023-01-06T02:07:13.769Z,4.80
2023-01-06T02:09:56.878Z,6.50
2023-01-06T02:12:25.065Z,3.60
2023-01-06T02:14:53.658Z,3.70
2023-01-06T02:17:24.999Z,3.40
2023-01-06T02:20:05.351Z,3.70
2023-01-06T02:22:45.448Z,7.10
2023-01-06T02:25:22.455Z,4.50
2023-01-06T02:30:18.110Z,3.80
2023-01-06T02:33:27.544Z,4.70
2023-01-06T02:35:55.540Z,4.60
2023-01-06T02:38:23.380Z,3.80
2023-01-06T02:41:03.383Z,5.40
2023-01-06T02:43:36.940Z,5.20
2023-01-06T02:46:11.526Z,4.10
2023-01-06T02:48:42.319Z,6.90
2023-01-06T02:51:16.780Z,4.90
2023-01-06T02:53:50.329Z,5.30
2023-01-06T02:56:20.108Z,3.80
2023-01-06T02:58:59.199Z,4.80
2023-01-06T03:01:31.394Z,4.70
2023-01-06T03:04:01.927Z,5.30
2023-01-06T03:06:31.793Z,5.30
2023-01-06T03:09:01.086Z,5.00
2023-01-06T03:11:31.082Z,3.90
2023-01-06T03:14:19.443Z,6.70
2023-01-06T03:16:47.314Z,34.20
2023-01-06T03:19:15.509Z,38.10
2023-01-06T03:21:44.439Z,15.80
2023-01-06T03:24:12.429Z,13.10
2023-01-06T03:26:40.234Z,10.50
2023-01-06T03:29:09.980Z,6.50
2023-01-06T03:31:47.514Z,7.70
2023-01-06T03:34:15.390Z,6.90
2023-01-06T03:37:01.757Z,4.80
2023-01-06T03:39:40.384Z,5.50
2023-01-06T03:42:35.792Z,4.50
2023-01-06T03:45:13.382Z,4.00
2023-01-06T03:48:01.531Z,3.90
2023-01-06T03:50:33.074Z,4.60
2023-01-06T03:53:15.441Z,5.30
2023-01-06T03:55:46.859Z,6.50
2023-01-06T03:58:15.340Z,6.00
2023-01-06T04:00:43.214Z,6.90
2023-01-06T04:03:14.985Z,4.90
2023-01-06T04:05:42.701Z,4.40
2023-01-06T04:08:10.665Z,7.40
2023-01-06T04:10:38.477Z,7.10
2023-01-06T04:13:06.194Z,4.70
2023-01-06T04:15:34.171Z,6.30
2023-01-06T04:18:02.447Z,6.60
2023-01-06T04:20:31.792Z,4.20
2023-01-06T04:23:00.723Z,4.40
2023-01-06T04:25:28.466Z,6.30
2023-01-06T04:27:56.523Z,5.60
2023-01-06T04:30:24.390Z,5.90
2023-01-06T04:32:52.294Z,4.40
2023-01-06T04:35:20.153Z,4.40
2023-01-06T04:37:48.131Z,5.10
2023-01-06T04:40:16.095Z,4.20
2023-01-06T04:43:02.821Z,4.60
2023-01-06T04:45:30.861Z,5.40
2023-01-06T04:47:58.641Z,6.60
2023-01-06T04:50:26.799Z,9.70
2023-01-06T04:52:54.706Z,8.60
2023-01-06T04:55:23.483Z,6.70
2023-01-06T04:57:51.539Z,6.00
2023-01-06T05:00:20.118Z,5.30
2023-01-06T05:02:48.017Z,4.70
2023-01-06T05:05:17.282Z,5.40
2023-01-06T05:07:45.360Z,6.90
2023-01-06T05:10:13.266Z,4.70
2023-01-06T05:12:41.387Z,5.40
2023-01-06T05:15:10.485Z,5.20
2023-01-06T05:17:38.722Z,5.60
2023-01-06T05:20:07.480Z,4.10
2023-01-06T05:22:35.261Z,4.10
2023-01-06T05:25:03.448Z,3.10
2023-01-06T05:27:31.262Z,3.80
2023-01-06T05:29:59.358Z,4.00
2023-01-06T05:32:27.264Z,5.20
2023-01-06T05:34:55.150Z,3.90
2023-01-06T05:37:23.238Z,4.80
2023-01-06T05:39:51.263Z,6.20
2023-01-06T05:42:19.273Z,5.20
2023-01-06T05:44:47.227Z,4.60
2023-01-06T05:47:15.198Z,6.20
2023-01-06T05:49:43.063Z,5.80
2023-01-06T05:52:11.325Z,8.40
2023-01-06T05:54:40.402Z,6.90
2023-01-06T05:57:09.991Z,5.00
2023-01-06T05:59:38.450Z,23.00
2023-01-06T06:02:06.488Z,43.80
2023-01-06T06:04:34.473Z,34.80
2023-01-06T06:07:02.427Z,19.80
2023-01-06T06:09:30.509Z,11.60
2023-01-06T06:11:58.417Z,7.80
2023-01-06T06:14:26.919Z,12.20
2023-01-06T06:16:56.542Z,8.80
2023-01-06T06:19:24.621Z,7.00
2023-01-06T06:21:53.410Z,7.00
2023-01-06T06:24:21.401Z,6.70
2023-01-06T06:26:49.545Z,8.90
2023-01-06T06:29:17.623Z,9.00
2023-01-06T06:31:45.722Z,9.80
2023-01-06T06:34:13.877Z,8.40
2023-01-06T06:36:42.175Z,8.30
2023-01-06T06:39:10.232Z,5.20
2023-01-06T06:41:38.693Z,5.40
2023-01-06T06:44:06.661Z,6.30
2023-01-06T06:46:34.642Z,10.20
2023-01-06T06:49:02.823Z,8.80
2023-01-06T06:51:31.942Z,8.40
2023-01-06T06:54:00.173Z,8.00
2023-01-06T06:56:28.135Z,6.70
2023-01-06T06:58:56.252Z,6.50
2023-01-06T07:01:24.190Z,5.80
2023-01-06T07:03:52.557Z,9.60
2023-01-06T07:06:22.261Z,5.30
2023-01-06T07:08:50.348Z,5.20
2023-01-06T07:11:19.122Z,7.30
2023-01-06T07:13:47.296Z,5.20
2023-01-06T07:16:16.392Z,6.40
2023-01-06T07:18:44.202Z,6.50
2023-01-06T07:21:13.403Z,6.70
2023-01-06T07:23:42.545Z,6.20
2023-01-06T07:26:11.943Z,6.00
2023-01-06T07:28:40.132Z,5.30
2023-01-06T07:31:08.346Z,6.40
2023-01-06T07:33:36.431Z,7.20
2023-01-06T07:36:05.047Z,6.00
2023-01-06T07:38:32.859Z,6.30
2023-01-06T07:41:01.360Z,7.90
2023-01-06T07:43:29.754Z,7.60
2023-01-06T07:45:57.780Z,6.50
2023-01-06T07:48:25.810Z,7.70
2023-01-06T07:50:53.845Z,7.60
2023-01-06T07:53:24.855Z,6.00
2023-01-06T07:55:53.725Z,7.10
2023-01-06T07:58:24.404Z,9.20
2023-01-06T08:00:52.542Z,6.80
2023-01-06T08:03:20.669Z,7.10
2023-01-06T08:05:48.861Z,7.30
2023-01-06T08:08:17.296Z,9.40
2023-01-06T08:10:45.667Z,6.40
2023-01-06T08:13:13.758Z,7.40
2023-01-06T08:15:41.830Z,7.40
2023-01-06T08:18:09.958Z,6.90
2023-01-06T08:20:38.532Z,7.20
2023-01-06T08:23:06.994Z,8.00
2023-01-06T08:25:34.980Z,8.60
2023-01-06T08:28:03.087Z,7.90
2023-01-06T08:30:31.196Z,7.00
2023-01-06T08:33:00.131Z,6.10
2023-01-06T08:35:28.377Z,7.50
2023-01-06T08:37:56.336Z,6.60
2023-01-06T08:40:24.528Z,7.90
2023-01-06T08:42:52.582Z,7.80
2023-01-06T08:45:20.750Z,8.60
2023-01-06T08:47:49.144Z,9.90
2023-01-06T08:50:17.311Z,9.70
2023-01-06T08:52:45.428Z,7.50
2023-01-06T08:55:15.808Z,7.30
2023-01-06T08:57:43.976Z,10.10
2023-01-06T09:00:12.349Z,14.50
2023-01-06T09:02:40.220Z,71.80
2023-01-06T09:05:08.872Z,49.50
2023-01-06T09:07:37.244Z,54.40
2023-01-06T09:10:07.504Z,16.60
2023-01-06T09:12:38.276Z,37.70
2023-01-06T09:15:07.021Z,43.60
2023-01-06T09:17:34.767Z,18.60
2023-01-06T09:20:02.725Z,19.00
2023-01-06T09:22:31.436Z,16.90
2023-01-06T09:24:59.607Z,31.20
2023-01-06T09:27:27.808Z,15.80
2023-01-06T09:29:56.064Z,18.00
2023-01-06T09:32:24.228Z,12.00
2023-01-06T09:34:52.350Z,30.70
2023-01-06T09:37:20.476Z,16.30
2023-01-06T09:39:48.549Z,12.30
2023-01-06T09:42:25.668Z,14.40
2023-01-06T09:47:23.614Z,20.70
2023-01-06T09:50:10.538Z,12.10
2023-01-06T09:52:41.538Z,17.60
2023-01-06T09:55:21.081Z,11.40
2023-01-06T09:57:52.925Z,25.50
2023-01-06T10:00:39.684Z,10.30
2023-01-06T10:05:43.043Z,11.10
2023-01-06T10:08:29.995Z,19.70
2023-01-06T10:11:18.862Z,11.50
2023-01-06T10:13:56.740Z,10.50
2023-01-06T10:16:32.136Z,12.10
2023-01-06T10:19:03.131Z,12.90
2023-01-06T10:21:54.593Z,10.80
2023-01-06T10:24:28.031Z,9.90
2023-01-06T10:27:02.333Z,11.60
2023-01-06T10:29:33.296Z,13.00
2023-01-06T10:32:04.204Z,13.20
2023-01-06T10:34:33.122Z,11.90
2023-01-06T10:37:07.543Z,10.80
2023-01-06T10:39:37.961Z,13.20
2023-01-06T10:42:43.953Z,10.50
2023-01-06T10:45:13.176Z,9.50
2023-01-06T10:47:43.722Z,16.30
2023-01-06T10:50:16.630Z,11.90
2023-01-06T10:52:45.532Z,9.60
2023-01-06T10:55:25.789Z,31.50
2023-01-06T10:57:57.857Z,15.10
2023-01-06T11:00:26.979Z,10.60
2023-01-06T11:03:31.374Z,14.30
2023-01-06T11:06:24.125Z,24.70
2023-01-06T11:08:52.218Z,13.00
2023-01-06T11:11:28.080Z,10.80
2023-01-06T11:13:57.985Z,13.00
2023-01-06T11:16:28.222Z,11.40
2023-01-06T11:19:06.566Z,11.40
2023-01-06T11:21:52.381Z,11.80
2023-01-06T11:24:21.990Z,14.60
2023-01-06T11:26:57.489Z,10.80
2023-01-06T11:29:27.371Z,9.50
2023-01-06T11:31:56.070Z,13.70
2023-01-06T11:34:26.116Z,10.80
2023-01-06T11:36:54.688Z,10.80
2023-01-06T11:39:28.550Z,12.50
2023-01-06T11:42:03.267Z,18.10
2023-01-06T11:44:33.072Z,15.00
2023-01-06T11:47:04.278Z,11.40
2023-01-06T11:49:44.017Z,11.90
2023-01-06T11:52:31.437Z,11.10
2023-01-06T11:55:19.956Z,10.20
2023-01-06T11:57:48.507Z,11.90
2023-01-06T12:00:19.178Z,11.20
2023-01-06T12:03:01.044Z,10.50
2023-01-06T12:05:39.377Z,9.50
2023-01-06T12:08:26.268Z,10.40
2023-01-06T12:10:58.033Z,12.40
2023-01-06T12:13:27.707Z,10.70
2023-01-06T12:16:01.429Z,12.20
2023-01-06T12:18:31.448Z,15.20
2023-01-06T12:21:00.645Z,13.80
2023-01-06T12:23:33.052Z,19.80
2023-01-06T12:26:02.625Z,13.30
2023-01-06T12:28:34.336Z,14.20
2023-01-06T12:31:08.626Z,12.20
2023-01-06T12:33:47.688Z,12.30
2023-01-06T12:36:36.295Z,11.30
2023-01-06T12:39:06.111Z,9.80
2023-01-06T12:41:33.874Z,9.90
2023-01-06T12:44:14.687Z,11.40
2023-01-06T12:46:48.566Z,10.90
2023-01-06T12:49:20.436Z,12.20
2023-01-06T12:51:54.269Z,14.00
2023-01-06T12:54:32.468Z,14.20
2023-01-06T12:57:00.390Z,14.60
2023-01-06T12:59:51.317Z,14.70
2023-01-06T13:02:31.769Z,16.90
2023-01-06T13:04:59.817Z,14.10
2023-01-06T13:07:36.800Z,13.90
2023-01-06T13:10:07.641Z,12.10
2023-01-06T13:12:44.765Z,14.50
2023-01-06T13:15:16.552Z,12.70
2023-01-06T13:17:55.108Z,14.90
2023-01-06T13:20:28.306Z,14.90
2023-01-06T13:22:56.149Z,12.90
2023-01-06T13:25:27.104Z,13.10
2023-01-06T13:28:00.625Z,12.60
2023-01-06T13:30:38.866Z,14.50
2023-01-06T13:33:14.783Z,15.30
2023-01-06T13:35:57.232Z,16.10
2023-01-06T13:38:44.222Z,13.10
2023-01-06T13:41:16.830Z,15.00
2023-01-06T13:43:46.663Z,14.00
2023-01-06T13:46:17.928Z,14.80
2023-01-06T13:48:48.619Z,17.20
2023-01-06T13:51:18.618Z,16.60
2023-01-06T13:53:47.190Z,12.00
2023-01-06T13:56:15.291Z,15.30
2023-01-06T13:58:44.402Z,17.70
2023-01-06T14:01:13.203Z,15.30
2023-01-06T14:03:42.375Z,14.60
2023-01-06T14:06:11.875Z,19.00
2023-01-06T14:08:47.222Z,14.20
2023-01-06T14:11:24.107Z,17.00
2023-01-06T14:13:59.616Z,16.30
2023-01-06T14:16:41.416Z,18.70
2023-01-06T14:19:20.037Z,15.10
2023-01-06T14:21:49.659Z,16.50
2023-01-06T14:24:31.962Z,19.00
2023-01-06T14:27:04.489Z,17.00
2023-01-06T14:29:45.314Z,15.50
2023-01-06T14:32:18.989Z,17.30
2023-01-06T14:34:52.204Z,17.10
2023-01-06T14:37:23.136Z,16.80
2023-01-06T14:39:53.904Z,18.50
2023-01-06T14:42:26.747Z,16.40
2023-01-06T14:44:56.971Z,18.20
2023-01-06T14:47:33.650Z,15.10
2023-01-06T14:50:07.746Z,15.70
2023-01-06T14:52:40.940Z,16.20
2023-01-06T14:55:15.262Z,14.20
2023-01-06T14:57:43.163Z,16.20
2023-01-06T15:00:11.662Z,15.40
2023-01-06T15:02:43.235Z,16.90
2023-01-06T15:05:19.173Z,16.10
2023-01-06T15:08:00.840Z,15.90
2023-01-06T15:10:31.985Z,17.60
2023-01-06T15:13:00.083Z,18.30
2023-01-06T15:15:32.697Z,19.10
2023-01-06T15:18:01.844Z,23.30
2023-01-06T15:20:32.016Z,22.50
2023-01-06T15:23:00.663Z,17.00
2023-01-06T15:25:29.728Z,28.80
2023-01-06T15:27:57.966Z,19.60
2023-01-06T15:30:28.541Z,18.30
2023-01-06T15:32:57.017Z,17.90
2023-01-06T15:35:29.206Z,20.70
2023-01-06T15:38:26.301Z,16.70
2023-01-06T15:40:54.765Z,21.50
2023-01-06T15:43:25.983Z,20.30
2023-01-06T15:45:59.119Z,20.20
2023-01-06T15:48:29.635Z,26.70
2023-01-06T15:50:58.114Z,21.60
2023-01-06T15:53:31.905Z,21.80
2023-01-06T15:56:01.324Z,21.70
2023-01-06T15:58:30.648Z,27.40
2023-01-06T16:01:01.970Z,25.20
2023-01-06T16:03:30.778Z,17.80
2023-01-06T16:06:11.977Z,20.20
2023-01-06T16:08:41.757Z,21.60
2023-01-06T16:11:16.161Z,21.50
2023-01-06T16:13:47.102Z,19.90
2023-01-06T16:16:15.376Z,15.80
2023-01-06T16:18:44.677Z,30.10
2023-01-06T16:21:32.230Z,53.10
2023-01-06T16:24:02.444Z,38.20
2023-01-06T16:26:31.737Z,46.80
2023-01-06T16:29:01.238Z,55.30
2023-01-06T16:31:34.965Z,31.80
2023-01-06T16:34:21.536Z,35.80
2023-01-06T16:36:51.303Z,37.10
2023-01-06T16:39:19.416Z,24.90
2023-01-06T16:41:59.583Z,23.00
2023-01-06T16:44:32.131Z,24.00
2023-01-06T16:47:01.663Z,22.30
2023-01-06T16:49:30.548Z,19.60
2023-01-06T16:51:59.505Z,20.20
2023-01-06T16:54:27.415Z,16.60
2023-01-06T16:56:55.374Z,20.00
2023-01-06T16:59:24.106Z,17.70
2023-01-06T17:01:53.981Z,18.60
2023-01-06T17:04:25.089Z,18.80
2023-01-06T17:06:55.027Z,19.20
2023-01-06T17:09:23.423Z,18.70
2023-01-06T17:11:52.945Z,19.10
2023-01-06T17:14:22.212Z,19.30
2023-01-06T17:16:53.972Z,20.50
2023-01-06T17:19:23.745Z,18.60
2023-01-06T17:21:55.359Z,19.00
2023-01-06T17:24:25.550Z,20.50
2023-01-06T17:27:02.586Z,20.20
2023-01-06T17:29:32.965Z,17.50
2023-01-06T17:32:02.306Z,22.20
2023-01-06T17:34:36.243Z,20.90
2023-01-06T17:37:12.598Z,17.60
2023-01-06T17:39:42.004Z,17.70
2023-01-06T17:42:13.490Z,15.80
2023-01-06T17:45:10.086Z,16.90
2023-01-06T17:47:44.335Z,15.40
2023-01-06T17:50:31.760Z,14.60
2023-01-06T17:53:38.714Z,15.20
2023-01-06T17:56:08.967Z,13.10
2023-01-06T17:58:39.521Z,17.70
2023-01-06T18:01:09.694Z,13.50
2023-01-06T18:03:39.941Z,13.50
2023-01-06T18:06:14.937Z,15.30
2023-01-06T18:08:47.167Z,13.00
2023-01-06T18:11:15.066Z,12.00
2023-01-06T18:13:43.136Z,13.30
2023-01-06T18:16:30.982Z,12.30
2023-01-06T18:19:17.942Z,10.50
2023-01-06T18:21:46.550Z,10.80
2023-01-06T18:24:16.253Z,11.30
2023-01-06T18:26:49.445Z,11.10
2023-01-06T18:29:25.366Z,10.10
2023-01-06T18:31:54.228Z,11.80
2023-01-06T18:34:39.951Z,11.30
2023-01-06T18:37:07.991Z,11.40
2023-01-06T18:39:39.949Z,9.30
2023-01-06T18:42:19.290Z,8.10
2023-01-06T18:44:48.352Z,8.60
2023-01-06T18:47:20.127Z,8.70
2023-01-06T18:49:50.903Z,8.50
2023-01-06T18:52:39.316Z,8.80
2023-01-06T18:55:14.930Z,8.80
2023-01-06T18:57:46.119Z,7.20
2023-01-06T19:00:35.608Z,7.30
2023-01-06T19:03:22.064Z,7.30
2023-01-06T19:05:52.321Z,9.90
2023-01-06T19:08:22.948Z,6.70
2023-01-06T19:10:50.962Z,7.40
2023-01-06T19:13:24.850Z,7.90
2023-01-06T19:15:54.031Z,9.00
2023-01-06T19:18:21.717Z,7.50
2023-01-06T19:20:49.574Z,8.40
2023-01-06T19:23:19.240Z,8.50
2023-01-06T19:25:53.215Z,8.00
2023-01-06T19:28:22.779Z,6.40
2023-01-06T19:30:58.024Z,9.40
2023-01-06T19:33:54.281Z,6.30
2023-01-06T19:36:32.753Z,6.90
2023-01-06T19:39:02.659Z,7.50
2023-01-06T19:41:32.172Z,6.50
2023-01-06T19:44:07.116Z,5.30
2023-01-06T19:46:38.877Z,6.10
2023-01-06T19:49:15.223Z,6.80
2023-01-06T19:51:43.510Z,6.90
2023-01-06T19:54:11.322Z,7.80
2023-01-06T19:56:42.226Z,7.00
2023-01-06T19:59:14.145Z,8.20
2023-01-06T20:01:42.618Z,5.50
2023-01-06T20:04:23.063Z,8.30
2023-01-06T20:06:51.277Z,6.30
2023-01-06T20:09:22.384Z,5.80
2023-01-06T20:11:51.628Z,6.90
2023-01-06T20:14:20.001Z,7.40
2023-01-06T20:16:49.081Z,7.80
2023-01-06T20:19:18.865Z,5.70
2023-01-06T20:21:48.917Z,5.90
2023-01-06T20:24:18.440Z,6.80
2023-01-06T20:26:47.643Z,5.70
2023-01-06T20:29:15.692Z,7.00
2023-01-06T20:31:46.103Z,8.90
2023-01-06T20:34:14.395Z,6.80
2023-01-06T20:36:42.567Z,6.60
2023-01-06T20:39:13.503Z,8.80
2023-01-06T20:41:42.395Z,5.90
2023-01-06T20:44:10.896Z,7.50
2023-01-06T20:46:39.359Z,6.00
2023-01-06T20:49:08.970Z,5.90
2023-01-06T20:51:37.553Z,5.10
2023-01-06T20:54:07.151Z,5.60
2023-01-06T20:56:35.118Z,7.60
2023-01-06T20:59:06.334Z,8.00
2023-01-06T21:01:35.521Z,13.20
2023-01-06T21:04:04.160Z,11.00
2023-01-06T21:06:32.703Z,9.90
2023-01-06T21:09:01.276Z,9.50
2023-01-06T21:11:29.343Z,7.00
2023-01-06T21:13:57.390Z,9.00
2023-01-06T21:16:25.681Z,8.60
2023-01-06T21:18:53.927Z,8.90
2023-01-06T21:21:22.087Z,7.20
2023-01-06T21:23:52.446Z,7.30
2023-01-06T21:26:20.737Z,7.70
2023-01-06T21:28:49.231Z,7.10
2023-01-06T21:31:17.438Z,6.70
2023-01-06T21:33:45.682Z,8.40
2023-01-06T21:36:13.852Z,6.20
2023-01-06T21:38:41.736Z,8.30
2023-01-06T21:41:28.157Z,7.40
2023-01-06T21:43:56.630Z,6.50
2023-01-06T21:46:25.035Z,8.10
2023-01-06T21:48:53.796Z,7.30
2023-01-06T21:51:22.493Z,6.00
2023-01-06T21:53:50.871Z,7.70
2023-01-06T21:56:20.005Z,8.20
2023-01-06T21:58:49.877Z,7.10
2023-01-06T22:01:18.675Z,8.10
2023-01-06T22:03:47.661Z,8.00
2023-01-06T22:06:18.909Z,7.40
2023-01-06T22:08:50.683Z,6.70
2023-01-06T22:11:20.433Z,8.60
2023-01-06T22:13:48.635Z,8.80
2023-01-06T22:16:16.726Z,10.30
2023-01-06T22:18:44.856Z,8.80
2023-01-06T22:21:13.231Z,8.60
2023-01-06T22:23:41.233Z,8.50
2023-01-06T22:26:09.248Z,7.20
2023-01-06T22:28:37.787Z,6.30
2023-01-06T22:31:05.616Z,7.30
2023-01-06T22:33:33.628Z,10.40
2023-01-06T22:36:01.840Z,11.70
2023-01-06T22:38:30.255Z,8.20
2023-01-06T22:40:58.540Z,11.20
2023-01-06T22:43:28.008Z,9.70
2023-01-06T22:45:57.789Z,12.60
2023-01-06T22:48:26.829Z,11.60
2023-01-06T22:50:59.199Z,14.30
2023-01-06T22:53:29.090Z,14.40
2023-01-06T22:56:01.700Z,13.20
2023-01-06T22:58:35.562Z,11.70
2023-01-06T23:01:03.995Z,13.50
2023-01-06T23:03:32.639Z,10.50
2023-01-06T23:06:02.327Z,14.30
2023-01-06T23:08:31.210Z,13.90
2023-01-06T23:11:03.926Z,11.20
2023-01-06T23:13:32.641Z,11.20
2023-01-06T23:16:05.591Z,9.60
2023-01-06T23:18:34.669Z,9.90
2023-01-06T23:21:04.083Z,13.90
2023-01-06T23:23:32.816Z,16.90
2023-01-06T23:26:03.823Z,24.00
2023-01-06T23:28:31.726Z,17.30
2023-01-06T23:31:02.763Z,13.70
2023-01-06T23:33:30.780Z,15.40
2023-01-06T23:36:02.156Z,11.20
2023-01-06T23:38:30.619Z,12.70
2023-01-06T23:41:05.903Z,13.50
2023-01-06T23:43:35.002Z,13.50
2023-01-06T23:46:07.602Z,12.80
2023-01-06T23:48:35.892Z,11.00
2023-01-06T23:51:04.244Z,11.60
2023-01-06T23:53:32.556Z,11.60
2023-01-06T23:56:04.666Z,13.10
2023-01-06T23:58:35.277Z,17.20
